Time,TemperatureF,DewpointF,PressureIn,WindDirection,WindDirectionDegrees,WindSpeedMPH,WindSpeedGustMPH,Humidity,HourlyPrecipIn,Conditions,Clouds,dailyrainin,SolarRadiationWatts/m^2,SoftwareType,DateUTC
2013-12-28 00:02:00,37.0,16.0,-100.00,NNW,347,2.0,4.0,42,0.00,,,0.00,0.000000,,2013-12-28 05:02:00,
2013-12-28 00:43:00,37.0,17.0,-100.00,South,187,2.0,4.0,43,0.00,,,0.00,0.000000,,2013-12-28 05:43:00,
2013-12-28 00:53:00,37.0,17.0,-100.00,South,187,2.0,4.0,43,0.00,,,0.00,0.000000,,2013-12-28 05:53:00,
2013-12-28 01:03:00,37.0,17.0,-100.00,South,187,2.0,4.0,43,0.00,,,0.00,0.000000,,2013-12-28 06:03:00,
2013-12-28 01:42:00,37.0,16.0,-100.00,SSE,164,1.0,3.0,41,0.00,,,0.00,0.000000,,2013-12-28 06:42:00,
2013-12-28 01:52:00,37.0,16.0,-100.00,SSE,164,1.0,3.0,41,0.00,,,0.00,0.000000,,2013-12-28 06:52:00,
2013-12-28 02:02:00,37.0,16.0,-100.00,SSE,164,1.0,3.0,41,0.00,,,0.00,0.000000,,2013-12-28 07:02:00,
2013-12-28 02:42:00,39.0,16.0,-100.00,South,177,3.0,6.0,39,0.00,,,0.00,0.000000,,2013-12-28 07:42:00,
2013-12-28 02:52:00,39.0,16.0,-100.00,South,177,3.0,6.0,39,0.00,,,0.00,0.000000,,2013-12-28 07:52:00,
2013-12-28 03:02:00,39.0,16.0,-100.00,South,177,3.0,6.0,39,0.00,,,0.00,0.000000,,2013-12-28 08:02:00,
2013-12-28 03:42:00,39.0,14.0,-100.00,South,179,3.0,5.0,35,0.00,,,0.00,0.000000,,2013-12-28 08:42:00,
2013-12-28 03:52:00,39.0,14.0,-100.00,South,179,3.0,5.0,35,0.00,,,0.00,0.000000,,2013-12-28 08:52:00,
2013-12-28 04:02:00,39.0,14.0,-100.00,South,179,3.0,5.0,35,0.00,,,0.00,0.000000,,2013-12-28 09:02:00,
2013-12-28 04:43:00,38.0,15.0,-100.00,South,187,3.0,4.0,38,0.00,,,0.00,0.000000,,2013-12-28 09:43:00,
2013-12-28 04:53:00,38.0,15.0,-100.00,South,187,3.0,4.0,38,0.00,,,0.00,0.000000,,2013-12-28 09:53:00,
2013-12-28 05:03:00,38.0,15.0,-100.00,South,187,3.0,4.0,38,0.00,,,0.00,0.000000,,2013-12-28 10:03:00,
2013-12-28 05:43:00,40.0,13.0,-100.00,SE,127,2.0,4.0,33,0.00,,,0.00,0.000000,,2013-12-28 10:43:00,
2013-12-28 05:53:00,40.0,13.0,-100.00,SE,127,2.0,4.0,33,0.00,,,0.00,0.000000,,2013-12-28 10:53:00,
2013-12-28 06:02:00,40.0,13.0,-100.00,SE,127,2.0,4.0,33,0.00,,,0.00,0.000000,,2013-12-28 11:02:00,
2013-12-28 06:52:00,41.0,10.0,-100.00,North,-999,0.0,4.0,27,0.00,,,0.00,0.000000,,2013-12-28 11:52:00,
2013-12-28 07:02:00,41.0,10.0,-100.00,North,-999,0.0,4.0,27,0.00,,,0.00,0.000000,,2013-12-28 12:02:00,
2013-12-28 07:42:00,42.0,10.0,-100.00,ENE,57,4.0,4.0,27,0.00,,,0.00,0.000000,,2013-12-28 12:42:00,
2013-12-28 07:52:00,42.0,10.0,-100.00,ENE,57,4.0,4.0,27,0.00,,,0.00,0.000000,,2013-12-28 12:52:00,
2013-12-28 08:01:00,42.0,10.0,-100.00,ENE,57,4.0,4.0,27,0.00,,,0.00,0.000000,,2013-12-28 13:01:00,
2013-12-28 08:42:00,42.0,5.0,-100.00,SSE,165,3.0,5.0,21,0.00,,,0.00,6.000000,,2013-12-28 13:42:00,
2013-12-28 08:52:00,42.0,5.0,-100.00,SSE,165,3.0,5.0,21,0.00,,,0.00,6.000000,,2013-12-28 13:52:00,
2013-12-28 09:02:00,42.0,5.0,-100.00,SSE,165,3.0,5.0,21,0.00,,,0.00,6.000000,,2013-12-28 14:02:00,
2013-12-28 10:44:00,43.0,14.0,-100.00,South,181,4.0,7.0,31,0.00,,,0.00,75.000000,,2013-12-28 15:44:00,
2013-12-28 10:53:00,43.0,14.0,-100.00,South,181,4.0,7.0,31,0.00,,,0.00,75.000000,,2013-12-28 15:53:00,
2013-12-28 11:03:00,43.0,14.0,-100.00,South,181,4.0,7.0,31,0.00,,,0.00,75.000000,,2013-12-28 16:03:00,
2013-12-28 11:43:00,46.0,16.0,-100.00,South,183,6.0,9.0,30,0.00,,,0.00,120.000000,,2013-12-28 16:43:00,
2013-12-28 11:53:00,46.0,16.0,-100.00,South,183,6.0,9.0,30,0.00,,,0.00,120.000000,,2013-12-28 16:53:00,
2013-12-28 12:03:00,46.0,16.0,-100.00,South,183,6.0,9.0,30,0.00,,,0.00,120.000000,,2013-12-28 17:03:00,
2013-12-28 12:43:00,45.0,18.0,-100.00,South,184,5.0,9.0,33,0.00,,,0.00,140.000000,,2013-12-28 17:43:00,
2013-12-28 12:52:00,45.0,18.0,-100.00,South,184,5.0,9.0,33,0.00,,,0.00,140.000000,,2013-12-28 17:52:00,
2013-12-28 13:02:00,45.0,18.0,-100.00,South,184,5.0,9.0,33,0.00,,,0.00,140.000000,,2013-12-28 18:02:00,
2013-12-28 13:52:00,42.0,16.0,-100.00,South,186,6.0,10.0,35,0.00,,,0.00,79.000000,,2013-12-28 18:52:00,
2013-12-28 14:02:00,42.0,16.0,-100.00,South,186,6.0,10.0,35,0.00,,,0.00,79.000000,,2013-12-28 19:02:00,
2013-12-28 14:42:00,42.0,14.0,-100.00,South,184,4.0,9.0,32,0.00,,,0.00,40.000000,,2013-12-28 19:42:00,
2013-12-28 15:42:00,42.0,27.0,-100.00,NNE,21,6.0,10.0,56,0.01,,,0.01,31.000000,,2013-12-28 20:42:00,
2013-12-28 15:52:00,42.0,27.0,-100.00,NNE,21,6.0,10.0,56,0.01,,,0.01,31.000000,,2013-12-28 20:52:00,
2013-12-28 16:02:00,42.0,27.0,-100.00,NNE,21,6.0,10.0,56,0.01,,,0.01,31.000000,,2013-12-28 21:02:00,
2013-12-28 16:43:00,40.0,36.0,-100.00,NNE,15,4.0,7.0,86,0.03,,,0.04,17.000000,,2013-12-28 21:43:00,
2013-12-28 16:53:00,40.0,36.0,-100.00,NNE,15,4.0,7.0,86,0.03,,,0.04,17.000000,,2013-12-28 21:53:00,
2013-12-28 17:03:00,40.0,36.0,-100.00,NNE,15,4.0,7.0,86,0.03,,,0.04,17.000000,,2013-12-28 22:03:00,
2013-12-28 17:42:00,38.0,36.0,-100.00,SSE,154,5.0,10.0,94,0.01,,,0.05,10.000000,,2013-12-28 22:42:00,
2013-12-28 17:53:00,38.0,36.0,-100.00,SSE,154,5.0,10.0,94,0.01,,,0.05,10.000000,,2013-12-28 22:53:00,
2013-12-28 18:03:00,38.0,36.0,-100.00,SSE,154,5.0,10.0,94,0.01,,,0.05,10.000000,,2013-12-28 23:03:00,
2013-12-28 18:43:00,42.0,30.0,-100.00,SE,137,7.0,15.0,62,0.01,,,0.06,1.000000,,2013-12-28 23:43:00,
2013-12-28 18:53:00,42.0,30.0,-100.00,SE,137,7.0,15.0,62,0.01,,,0.06,1.000000,,2013-12-28 23:53:00,
2013-12-28 19:02:00,42.0,30.0,-100.00,SE,137,7.0,15.0,62,0.01,,,0.06,1.000000,,2013-12-29 00:02:00,
2013-12-28 19:42:00,37.0,31.0,-100.00,South,169,7.0,14.0,80,0.01,,,0.07,0.000000,,2013-12-29 00:42:00,
2013-12-28 19:52:00,37.0,31.0,-100.00,South,169,7.0,14.0,80,0.01,,,0.07,0.000000,,2013-12-29 00:52:00,
2013-12-28 20:02:00,37.0,31.0,-100.00,South,169,7.0,14.0,80,0.01,,,0.07,0.000000,,2013-12-29 01:02:00,
2013-12-28 20:42:00,35.0,30.0,-100.00,South,170,6.0,18.0,81,0.03,,,0.10,0.000000,,2013-12-29 01:42:00,
2013-12-28 20:52:00,35.0,30.0,-100.00,South,170,6.0,18.0,81,0.03,,,0.10,0.000000,,2013-12-29 01:52:00,
2013-12-28 21:02:00,35.0,30.0,-100.00,South,170,6.0,18.0,81,0.03,,,0.10,0.000000,,2013-12-29 02:02:00,
2013-12-28 21:42:00,33.0,31.0,-100.00,SSE,151,9.0,19.0,92,0.07,,,0.17,0.000000,,2013-12-29 02:42:00,
2013-12-28 21:52:00,33.0,31.0,-100.00,SSE,151,9.0,19.0,92,0.07,,,0.17,0.000000,,2013-12-29 02:52:00,
2013-12-28 22:02:00,33.0,31.0,-100.00,SSE,151,9.0,19.0,92,0.07,,,0.17,0.000000,,2013-12-29 03:02:00,
2013-12-28 22:43:00,35.0,34.0,-100.00,SSE,152,7.0,19.0,96,0.09,,,0.26,0.000000,,2013-12-29 03:43:00,
2013-12-28 22:53:00,35.0,34.0,-100.00,SSE,152,7.0,19.0,96,0.09,,,0.26,0.000000,,2013-12-29 03:53:00,
2013-12-28 23:03:00,-999.0,-99.9,-100.00,SSE,152,7.0,19.0,-999,0.09,,,0.26,0.000000,,2013-12-29 04:03:00,
2013-12-28 23:42:00,38.0,37.0,-100.00,SSE,155,9.0,26.0,98,0.15,,,0.41,0.000000,,2013-12-29 04:42:00,
2013-12-28 23:53:00,38.0,37.0,-100.00,SSE,155,9.0,26.0,98,0.15,,,0.41,0.000000,,2013-12-29 04:53:00,